KHNB/HNB METAR and TAF weather

Enter ICAO airport designator
Station Type Date Time Source
KHNB METAR 2024/04/18 05:56 UTC NOAA

KHNB 180556Z AUTO 20003KT 10SM CLR 14/10 A3003 RMK AO2 SLP164 T01440100 10244 20133 51012


Station Type Date Time Source
KHNB Decoded METAR 2024/04/18 05:56 UTC NOAA

Huntingburg, IN, United States (KHNB) 38-15N 086-57W
Apr 18, 2024 - 01:56 AM EDT / 2024.04.18 0556 UTC
Wind: from the SSW (200 degrees) at 3 MPH (3 KT):0
Visibility: 10 mile(s):0
Sky conditions: clear
Temperature: 57.9 F (14.4 C)
Dew Point: 50.0 F (10.0 C)
Relative Humidity: 74%
Pressure (altimeter): 30.03 in. Hg (1016 hPa)
Pressure tendency: 0.04 inches (1.2 hPa) higher than three hours ago
ob: KHNB 180556Z AUTO 20003KT 10SM CLR 14/10 A3003 RMK AO2 SLP164 T01440100 10244 20133 51012
cycle: 6

Station Type Date Time Source
KHNB TAF 2024/04/18 01:51 UTC NOAA